Time;durP1;ratioP1;P1;durP2;ratioP2;P2;SDS_P1;SDS_P2;PMS_P1;PMS_P2;Temp;Humidity;BMP_temperature;BMP_pressure;BME280_temperature;BME280_humidity;BME280_pressure;Samples;Min_cycle;Max_cycle;Signal;HPM_P1;HPM_P2
2020/12/15 00:02:58;;;;;;;4.25;2.33;;;;;;;7.32;78.08;100953.34;10126957;28;20770;-68
2020/12/15 00:07:54;;;;;;;6.72;2.70;;;;;;;7.17;77.86;100939.91;10124373;28;20884;-69
2020/12/15 00:12:50;;;;;;;5.60;2.55;;;;;;;7.09;77.11;100937.84;10133937;28;20064;-68
2020/12/15 00:17:46;;;;;;;5.25;2.28;;;;;;;7.16;77.63;100943.75;10119622;28;20051;-68
2020/12/15 00:22:42;;;;;;;4.10;2.53;;;;;;;7.11;77.28;100935.66;10135236;28;20058;-68
2020/12/15 00:27:38;;;;;;;5.18;2.45;;;;;;;7.12;77.52;100943.50;10115294;28;20068;-68
2020/12/15 00:32:34;;;;;;;6.80;2.67;;;;;;;7.17;78.23;100942.63;10130483;28;20051;-68
2020/12/15 00:37:34;;;;;;;5.10;2.47;;;;;;;7.08;78.12;100941.66;10130599;28;20061;-66
2020/12/15 00:42:30;;;;;;;5.03;2.50;;;;;;;7.19;77.92;100943.16;10120859;28;20117;-68
2020/12/15 00:47:26;;;;;;;6.10;2.65;;;;;;;7.18;77.38;100946.97;10123705;28;20573;-68
2020/12/15 00:52:27;;;;;;;5.65;2.72;;;;;;;7.17;78.00;100931.75;10124695;28;20054;-67
2020/12/15 00:57:23;;;;;;;6.82;2.42;;;;;;;7.14;78.48;100927.69;10117939;28;20097;-66
2020/12/15 01:02:20;;;;;;;5.88;2.78;;;;;;;7.11;78.39;100922.03;10129866;28;20051;-70
2020/12/15 01:07:16;;;;;;;11.20;6.45;;;;;;;7.06;79.18;100894.91;10120355;28;20061;-67
2020/12/15 01:12:12;;;;;;;5.30;2.70;;;;;;;7.09;80.38;100888.91;10126292;28;20086;-68
2020/12/15 01:17:09;;;;;;;4.93;2.63;;;;;;;7.13;79.98;100876.34;10121358;28;20522;-68
2020/12/15 01:22:06;;;;;;;7.10;3.47;;;;;;;7.14;80.40;100875.22;10129206;28;20090;-68
2020/12/15 01:27:02;;;;;;;7.28;3.35;;;;;;;7.08;79.88;100868.25;10095498;28;20050;-67
2020/12/15 01:32:04;;;;;;;5.93;3.22;;;;;;;7.07;79.86;100858.47;10101410;28;20101;-68
2020/12/15 01:37:04;;;;;;;5.72;2.97;;;;;;;6.98;80.34;100846.59;10110440;28;20573;-72
2020/12/15 01:42:00;;;;;;;7.35;3.30;;;;;;;6.98;81.06;100838.44;10128351;28;20502;-70
2020/12/15 01:46:58;;;;;;;7.05;3.50;;;;;;;6.90;81.66;100837.19;10126751;28;20081;-67
2020/12/15 01:51:54;;;;;;;7.97;3.53;;;;;;;6.97;81.68;100828.69;10133896;28;20077;-70
2020/12/15 01:56:50;;;;;;;7.03;3.60;;;;;;;6.86;82.15;100812.50;10126266;28;20061;-67
2020/12/15 02:01:46;;;;;;;7.43;3.88;;;;;;;6.92;81.46;100803.19;10129948;28;20050;-68
2020/12/15 02:06:47;;;;;;;7.22;3.85;;;;;;;6.94;81.53;100795.56;10127872;28;20467;-69
2020/12/15 02:11:44;;;;;;;7.40;3.70;;;;;;;6.66;83.07;100815.44;10127880;28;20057;-68
2020/12/15 02:16:41;;;;;;;7.35;3.70;;;;;;;6.79;82.94;100813.94;10109703;28;20105;-68
2020/12/15 02:22:02;;;;;;;6.05;3.17;;;;;;;6.92;82.43;100803.19;10121786;28;20050;-67
2020/12/15 02:26:58;;;;;;;6.63;3.40;;;;;;;7.00;81.81;100798.19;10121618;28;20046;-66
2020/12/15 02:31:54;;;;;;;8.02;3.80;;;;;;;7.00;81.84;100788.13;10120681;28;20050;-66
2020/12/15 02:36:51;;;;;;;8.43;3.58;;;;;;;6.94;82.71;100789.31;10130883;28;20157;-66
2020/12/15 02:41:52;;;;;;;8.95;4.28;;;;;;;6.87;82.85;100794.28;10131179;28;20646;-66
2020/12/15 02:46:50;;;;;;;7.32;4.20;;;;;;;6.82;83.17;100792.41;10119766;28;20066;-66
2020/12/15 02:51:49;;;;;;;9.02;3.90;;;;;;;6.86;82.73;100801.63;10124120;28;20054;-66
2020/12/15 02:56:45;;;;;;;7.70;3.60;;;;;;;6.87;82.84;100794.28;10131007;28;20061;-65
2020/12/15 03:01:43;;;;;;;6.50;3.92;;;;;;;6.82;83.53;100802.50;10122336;28;20525;-65
2020/12/15 03:06:40;;;;;;;7.57;3.38;;;;;;;6.91;82.88;100815.13;10124550;28;20145;-68
2020/12/15 03:11:36;;;;;;;9.52;4.78;;;;;;;6.88;83.06;100813.00;10134253;28;20068;-68
2020/12/15 03:16:33;;;;;;;8.15;3.97;;;;;;;7.01;82.08;100822.38;10118784;28;20105;-68
2020/12/15 03:21:30;;;;;;;7.20;3.70;;;;;;;6.95;82.98;100813.47;10117353;28;20058;-67
2020/12/15 03:26:27;;;;;;;7.80;4.22;;;;;;;6.87;82.76;100827.72;10120107;28;20173;-68
2020/12/15 03:31:23;;;;;;;5.30;3.10;;;;;;;6.95;82.21;100827.06;10128225;28;20081;-68
2020/12/15 03:36:19;;;;;;;7.45;3.80;;;;;;;7.02;82.14;100817.75;10122708;28;20055;-67
2020/12/15 03:41:15;;;;;;;5.82;3.53;;;;;;;6.98;82.72;100814.00;10135263;28;20117;-68
2020/12/15 03:46:11;;;;;;;6.05;4.28;;;;;;;6.94;81.81;100801.00;10130850;28;21407;-66
2020/12/15 03:51:07;;;;;;;10.48;5.82;;;;;;;6.65;83.67;100802.97;10140534;28;20053;-66
2020/12/15 03:56:03;;;;;;;7.18;3.78;;;;;;;6.78;82.46;100796.84;10125973;28;20403;-66
2020/12/15 04:00:59;;;;;;;7.78;4.18;;;;;;;6.79;83.09;100784.06;10131375;28;20043;-69
2020/12/15 04:05:56;;;;;;;6.18;4.38;;;;;;;6.77;83.32;100800.66;10132330;28;20125;-67
2020/12/15 04:10:52;;;;;;;6.97;4.10;;;;;;;6.79;82.12;100806.59;10113393;28;20435;-69
2020/12/15 04:15:48;;;;;;;6.15;3.60;;;;;;;6.81;81.65;100801.69;10128638;28;20078;-68
2020/12/15 04:20:44;;;;;;;5.68;3.38;;;;;;;6.83;81.26;100804.94;10108238;28;20050;-69
2020/12/15 04:25:55;;;;;;;8.43;4.10;;;;;;;6.87;81.78;100805.97;10129000;28;20700;-69
2020/12/15 04:30:51;;;;;;;6.70;3.75;;;;;;;6.80;81.20;100810.97;10122817;28;20061;-68
2020/12/15 04:35:47;;;;;;;7.40;3.75;;;;;;;6.74;81.77;100801.22;10124630;28;20057;-68
2020/12/15 04:40:44;;;;;;;7.90;4.13;;;;;;;6.72;81.64;100804.22;10125320;28;20676;-70
2020/12/15 04:45:40;;;;;;;8.93;4.38;;;;;;;6.80;82.48;100805.53;10133610;28;20525;-68
2020/12/15 04:50:37;;;;;;;6.88;4.07;;;;;;;6.80;81.96;100810.13;10139764;28;20050;-69
2020/12/15 04:55:35;;;;;;;7.95;4.68;;;;;;;6.86;82.31;100804.34;10112160;28;20050;-69
2020/12/15 05:00:34;;;;;;;7.88;4.28;;;;;;;6.74;80.97;100812.91;10132677;28;20058;-68
2020/12/15 05:05:31;;;;;;;6.10;4.32;;;;;;;6.75;80.53;100808.28;10124636;28;20081;-68
2020/12/15 05:10:27;;;;;;;8.48;4.60;;;;;;;6.68;80.44;100808.66;10125712;28;20065;-68
2020/12/15 05:15:25;;;;;;;7.15;4.93;;;;;;;6.74;80.68;100814.81;10134606;28;20058;-69
2020/12/15 05:20:28;;;;;;;7.60;4.70;;;;;;;6.72;81.26;100804.22;10131963;28;20160;-69
2020/12/15 05:25:32;;;;;;;8.63;4.88;;;;;;;6.76;80.78;100818.06;10133026;28;20062;-69
2020/12/15 05:30:32;;;;;;;7.05;4.80;;;;;;;6.78;81.03;100818.59;10139426;28;20054;-69
2020/12/15 05:35:33;;;;;;;8.43;5.03;;;;;;;6.79;80.84;100825.63;10133575;28;20121;-69
2020/12/15 05:40:30;;;;;;;9.68;5.05;;;;;;;6.80;80.92;100829.97;10138426;28;20502;-69
2020/12/15 05:45:28;;;;;;;7.85;4.38;;;;;;;6.76;81.37;100826.22;10129298;28;20410;-71
2020/12/15 05:50:25;;;;;;;11.82;5.00;;;;;;;6.85;81.15;100824.47;10128564;28;20117;-69
2020/12/15 05:55:21;;;;;;;6.95;4.90;;;;;;;6.88;81.82;100815.72;10134062;28;20061;-69
2020/12/15 06:00:18;;;;;;;9.57;5.50;;;;;;;6.90;82.12;100831.75;10131577;28;20377;-69
2020/12/15 06:05:14;;;;;;;9.55;5.45;;;;;;;6.94;81.63;100821.94;10130146;28;20105;-68
2020/12/15 06:10:11;;;;;;;10.02;5.43;;;;;;;6.95;81.80;100829.78;10118180;28;20050;-69
2020/12/15 06:15:08;;;;;;;8.70;5.30;;;;;;;6.93;81.74;100826.53;10119773;28;20051;-67
2020/12/15 06:20:08;;;;;;;11.13;5.43;;;;;;;6.88;82.44;100820.38;10120073;28;20410;-67
2020/12/15 06:25:04;;;;;;;9.70;5.95;;;;;;;6.87;83.11;100822.28;10128768;28;20085;-67
2020/12/15 06:30:01;;;;;;;11.70;6.05;;;;;;;6.84;82.89;100817.41;10131427;28;20686;-67
2020/12/15 06:34:58;;;;;;;8.50;5.53;;;;;;;6.87;83.31;100803.25;10131798;28;20132;-67
2020/12/15 06:39:58;;;;;;;12.77;6.63;;;;;;;6.90;83.34;100794.50;10127850;28;20042;-67
2020/12/15 06:45:08;;;;;;;11.23;6.80;;;;;;;6.93;83.27;100802.06;10125474;28;20101;-68
2020/12/15 06:50:17;;;;;;;10.60;5.68;;;;;;;6.95;83.56;100796.34;10127738;28;20046;-68
2020/12/15 06:55:14;;;;;;;10.40;6.25;;;;;;;6.91;84.38;100801.56;10113669;28;20408;-67
2020/12/15 07:00:12;;;;;;;11.20;7.40;;;;;;;6.86;84.77;100815.22;10115759;28;20130;-68
2020/12/15 07:05:25;;;;;;;8.82;5.53;;;;;;;6.98;84.56;100822.16;10115972;28;20078;-68
2020/12/15 07:10:23;;;;;;;8.95;5.82;;;;;;;7.03;84.13;100841.09;10116352;28;20069;-68
2020/12/15 07:15:20;;;;;;;9.77;6.57;;;;;;;7.06;84.04;100833.19;10133441;28;20058;-69
2020/12/15 07:20:18;;;;;;;9.32;6.00;;;;;;;7.00;83.67;100838.97;10123780;28;20078;-68
2020/12/15 07:25:15;;;;;;;9.90;5.63;;;;;;;6.95;84.06;100840.66;10115478;28;20051;-68
2020/12/15 07:30:17;;;;;;;11.50;6.03;;;;;;;6.90;84.34;100848.88;10121213;28;20046;-68
2020/12/15 07:35:20;;;;;;;13.38;6.97;;;;;;;6.91;84.50;100850.47;10113879;28;20521;-68
2020/12/15 07:40:18;;;;;;;11.35;7.35;;;;;;;6.91;84.64;100845.03;10111300;28;20078;-68
2020/12/15 07:45:14;;;;;;;11.95;7.53;;;;;;;6.88;84.64;100845.63;10129136;28;20141;-68
2020/12/15 07:50:11;;;;;;;10.45;6.38;;;;;;;6.90;85.17;100843.44;10114054;28;20050;-68
2020/12/15 07:55:12;;;;;;;11.75;6.97;;;;;;;6.89;85.26;100849.97;10131746;28;20054;-68
2020/12/15 08:00:21;;;;;;;14.18;7.25;;;;;;;6.89;85.30;100852.69;10140275;28;20050;-68
2020/12/15 08:05:24;;;;;;;15.82;8.90;;;;;;;6.91;85.50;100849.69;10131939;28;20916;-68
2020/12/15 08:10:31;;;;;;;10.93;7.28;;;;;;;6.93;85.56;100851.00;10139830;28;20470;-68
2020/12/15 08:15:29;;;;;;;12.70;7.63;;;;;;;6.93;85.68;100853.72;10142788;28;20410;-68
2020/12/15 08:20:28;;;;;;;16.27;8.52;;;;;;;6.99;85.70;100856.41;10151178;28;20050;-67
2020/12/15 08:25:24;;;;;;;11.32;6.95;;;;;;;7.02;86.09;100855.81;10140514;28;20073;-68
2020/12/15 08:30:21;;;;;;;13.30;7.47;;;;;;;7.04;86.15;100848.19;10137450;28;20054;-68
2020/12/15 08:35:22;;;;;;;15.43;7.53;;;;;;;7.04;86.07;100854.41;10141054;28;21409;-68
2020/12/15 08:40:18;;;;;;;15.23;7.80;;;;;;;7.04;86.20;100859.06;10144320;28;20050;-68
2020/12/15 08:45:16;;;;;;;10.75;7.93;;;;;;;7.08;86.06;100860.09;10142185;28;20720;-67
2020/12/15 08:50:14;;;;;;;10.02;8.30;;;;;;;7.14;86.33;100864.34;10141125;28;20058;-68
2020/12/15 08:55:10;;;;;;;15.43;8.77;;;;;;;7.20;86.19;100868.63;10119275;28;20120;-68
2020/12/15 09:00:11;;;;;;;12.95;8.52;;;;;;;7.28;86.06;100865.25;10142834;28;20094;-68
2020/12/15 09:05:12;;;;;;;13.95;9.13;;;;;;;7.30;85.63;100871.22;10135424;28;20133;-68
2020/12/15 09:10:14;;;;;;;12.02;8.85;;;;;;;7.30;85.96;100878.56;10137791;28;20053;-68
2020/12/15 09:15:10;;;;;;;12.43;8.75;;;;;;;7.31;86.23;100875.56;10142684;28;20465;-68
2020/12/15 09:20:08;;;;;;;12.73;9.57;;;;;;;7.36;85.47;100883.66;10139631;28;20178;-68
2020/12/15 09:25:11;;;;;;;11.95;8.25;;;;;;;7.42;85.63;100881.66;10132396;28;20050;-68
2020/12/15 09:30:08;;;;;;;;;;;;;;;7.51;85.74;100879.13;10130155;28;20058;-68
2020/12/15 09:35:05;;;;;;;13.32;9.15;;;;;;;7.59;85.63;100870.31;10117504;28;19973;-68
2020/12/15 09:40:04;;;;;;;12.20;8.43;;;;;;;7.73;85.29;100875.81;10126771;28;20403;-68
2020/12/15 09:45:00;;;;;;;12.65;9.38;;;;;;;7.76;85.22;100876.03;10117011;28;20054;-68
2020/12/15 09:49:56;;;;;;;12.85;8.73;;;;;;;7.78;84.94;100883.91;10131809;28;20113;-68
2020/12/15 09:54:52;;;;;;;17.23;9.40;;;;;;;7.83;84.79;100885.75;10127167;28;20051;-68
2020/12/15 09:59:48;;;;;;;15.48;9.02;;;;;;;7.91;84.74;100879.63;10136583;28;20054;-68
2020/12/15 10:04:44;;;;;;;12.50;9.43;;;;;;;8.04;85.28;100867.97;10131485;28;20106;-68
2020/12/15 10:09:40;;;;;;;12.52;8.82;;;;;;;8.03;84.44;100871.81;10114147;28;20679;-68
2020/12/15 10:14:37;;;;;;;12.63;8.75;;;;;;;8.11;84.97;100862.16;10137233;28;20906;-68
2020/12/15 10:19:33;;;;;;;13.88;8.55;;;;;;;8.15;84.44;100869.44;10137196;28;20446;-68
2020/12/15 10:24:29;;;;;;;14.18;9.20;;;;;;;8.25;84.16;100887.53;10132031;28;20058;-68
2020/12/15 10:29:29;;;;;;;14.55;9.45;;;;;;;8.32;84.49;100887.16;10139287;28;20498;-69
2020/12/15 10:34:25;;;;;;;14.73;7.88;;;;;;;8.54;83.65;100889.22;10122257;28;20054;-68
2020/12/15 10:39:21;;;;;;;11.13;7.45;;;;;;;8.80;82.91;100892.31;10126297;28;20139;-69
2020/12/15 10:44:17;;;;;;;14.23;7.55;;;;;;;8.92;83.02;100879.00;10130888;28;20054;-68
2020/12/15 10:49:16;;;;;;;11.50;7.45;;;;;;;9.03;81.94;100885.88;10124421;28;20047;-68
2020/12/15 10:54:12;;;;;;;10.60;7.70;;;;;;;9.00;81.57;100891.91;10116352;28;20463;-68
2020/12/15 10:59:09;;;;;;;12.05;8.05;;;;;;;9.01;81.32;100890.81;10132205;28;20057;-68
2020/12/15 11:04:05;;;;;;;12.45;7.80;;;;;;;8.95;81.39;100889.28;10141349;28;20061;-68
2020/12/15 11:09:03;;;;;;;11.93;7.18;;;;;;;8.82;81.50;100901.81;10135307;28;20054;-67
2020/12/15 11:14:00;;;;;;;10.73;8.10;;;;;;;8.77;81.88;100906.53;10133255;28;20227;-68
2020/12/15 11:19:13;;;;;;;11.10;8.35;;;;;;;8.57;81.67;100900.34;10129849;28;20057;-69
2020/12/15 11:24:09;;;;;;;11.35;8.88;;;;;;;8.60;81.86;100894.28;10136316;28;20054;-68
2020/12/15 11:29:05;;;;;;;14.38;8.80;;;;;;;8.66;82.43;100907.81;10133877;28;20050;-68
2020/12/15 11:34:01;;;;;;;12.38;8.85;;;;;;;8.60;82.49;100883.41;10129900;28;20050;-68
2020/12/15 11:38:57;;;;;;;11.02;8.20;;;;;;;8.66;82.23;100891.47;10117099;28;20054;-68
2020/12/15 11:43:54;;;;;;;11.25;8.50;;;;;;;8.76;82.70;100892.09;10127667;28;20054;-68
2020/12/15 11:48:50;;;;;;;12.25;9.15;;;;;;;8.81;82.75;100883.03;10138404;28;20585;-70
2020/12/15 11:53:47;;;;;;;10.82;8.75;;;;;;;8.78;82.23;100894.53;10143086;28;20549;-68
2020/12/15 11:58:44;;;;;;;12.90;8.90;;;;;;;8.73;82.55;100897.38;10142346;28;20056;-70
2020/12/15 12:03:40;;;;;;;16.23;9.30;;;;;;;8.70;83.38;100890.56;10135838;28;20077;-69
2020/12/15 12:08:36;;;;;;;12.55;8.70;;;;;;;8.76;82.92;100885.84;10139102;28;20062;-70
2020/12/15 12:13:32;;;;;;;12.32;8.65;;;;;;;8.77;82.67;100892.91;10146087;28;20062;-70
2020/12/15 12:18:28;;;;;;;10.27;8.23;;;;;;;8.77;82.50;100899.19;10145616;28;20434;-69
2020/12/15 12:23:25;;;;;;;12.55;8.45;;;;;;;8.85;83.08;100890.28;10103808;28;20129;-67
2020/12/15 12:28:21;;;;;;;12.70;9.55;;;;;;;8.80;83.42;100900.50;10127540;28;20059;-70
2020/12/15 12:33:17;;;;;;;15.75;9.00;;;;;;;8.69;84.14;100901.78;10135292;28;20054;-68
2020/12/15 12:38:14;;;;;;;13.23;8.95;;;;;;;8.76;83.81;100891.31;10114213;28;20078;-70
2020/12/15 12:43:10;;;;;;;12.65;7.82;;;;;;;8.78;83.24;100889.09;10131013;28;20097;-70
2020/12/15 12:48:08;;;;;;;11.77;8.40;;;;;;;8.73;82.74;100897.38;10128766;28;20443;-70
2020/12/15 12:53:04;;;;;;;11.93;8.18;;;;;;;8.69;83.45;100897.16;10127547;28;20043;-68
2020/12/15 12:58:00;;;;;;;11.77;8.30;;;;;;;8.77;83.19;100888.28;10124930;28;20101;-67
2020/12/15 13:02:56;;;;;;;11.18;8.00;;;;;;;8.75;83.28;100900.56;10132964;28;20105;-70
2020/12/15 13:07:52;;;;;;;12.55;8.38;;;;;;;8.64;83.60;100906.22;10127159;28;20053;-71
2020/12/15 13:12:48;;;;;;;13.00;8.23;;;;;;;8.72;83.22;100909.38;10131683;28;20549;-71
2020/12/15 13:17:44;;;;;;;12.02;8.15;;;;;;;8.77;83.68;100914.72;10130500;28;20070;-70
2020/12/15 13:22:40;;;;;;;11.10;7.78;;;;;;;8.77;83.43;100925.63;10132237;28;20046;-71
2020/12/15 13:27:36;;;;;;;12.18;8.93;;;;;;;8.72;84.24;100928.44;10136918;28;20054;-69
2020/12/15 13:32:33;;;;;;;12.85;8.95;;;;;;;8.74;83.80;100920.78;10139525;28;20057;-70
2020/12/15 13:37:29;;;;;;;14.75;9.80;;;;;;;8.77;83.72;100928.34;10134557;28;20058;-68
2020/12/15 13:42:25;;;;;;;13.43;9.00;;;;;;;8.75;84.15;100922.38;10139017;28;20137;-68
2020/12/15 13:47:21;;;;;;;12.77;8.75;;;;;;;8.75;84.03;100930.56;10127626;28;20074;-68
2020/12/15 13:52:19;;;;;;;11.98;8.55;;;;;;;8.75;84.40;100927.84;10118574;28;20084;-70
2020/12/15 13:57:15;;;;;;;12.68;9.40;;;;;;;8.81;83.89;100929.38;10137226;28;20068;-69
2020/12/15 14:02:12;;;;;;;18.80;10.25;;;;;;;8.79;84.32;100940.56;10141644;28;20057;-66
2020/12/15 14:07:08;;;;;;;15.00;9.60;;;;;;;8.79;84.67;100939.75;10134506;28;20046;-66
2020/12/15 14:12:04;;;;;;;17.60;11.23;;;;;;;8.62;85.36;100945.78;10138312;28;20112;-66
2020/12/15 14:17:00;;;;;;;15.73;11.00;;;;;;;8.60;85.68;100946.09;10133981;28;20089;-69
2020/12/15 14:21:56;;;;;;;14.68;10.73;;;;;;;8.67;85.43;100947.63;10134069;28;20050;-66
2020/12/15 14:26:53;;;;;;;18.77;10.68;;;;;;;8.58;85.79;100940.13;10123399;28;20078;-67
2020/12/15 14:31:49;;;;;;;16.35;11.05;;;;;;;8.64;85.94;100944.38;10139991;28;20759;-66
2020/12/15 14:36:45;;;;;;;15.05;10.85;;;;;;;8.71;85.82;100943.19;10132642;28;20057;-69
2020/12/15 14:41:45;;;;;;;16.30;11.02;;;;;;;8.71;85.85;100944.00;10134562;28;20050;-68
2020/12/15 14:46:46;;;;;;;19.40;11.52;;;;;;;8.73;85.57;100946.44;10135124;28;20050;-64
2020/12/15 14:51:47;;;;;;;17.88;10.55;;;;;;;8.59;85.79;100947.19;10136769;28;20058;-67
2020/12/15 14:56:43;;;;;;;16.77;12.25;;;;;;;8.58;85.99;100948.28;10121895;28;20089;-68
2020/12/15 15:01:39;;;;;;;16.60;11.65;;;;;;;8.61;85.90;100942.25;10109651;28;20608;-67
2020/12/15 15:06:35;;;;;;;17.23;12.43;;;;;;;8.62;86.06;100946.59;10123384;28;20050;-67
2020/12/15 15:11:31;;;;;;;18.73;11.70;;;;;;;8.64;86.30;100949.84;10121978;28;20058;-68
2020/12/15 15:16:27;;;;;;;14.57;11.02;;;;;;;8.64;86.71;100947.09;10124796;28;20062;-67
2020/12/15 15:21:38;;;;;;;15.77;11.40;;;;;;;8.69;86.30;100961.75;10128594;28;20047;-67
2020/12/15 15:26:35;;;;;;;20.77;14.02;;;;;;;8.52;86.25;100946.78;10137055;28;20552;-68
2020/12/15 15:31:32;;;;;;;18.23;12.95;;;;;;;8.66;86.73;100948.72;10120002;28;20046;-67
2020/12/15 15:36:31;;;;;;;17.98;13.35;;;;;;;8.62;86.12;100946.59;10133434;28;20077;-67
2020/12/15 15:41:27;;;;;;;16.95;12.95;;;;;;;8.62;85.91;100943.06;10120993;28;20050;-67
2020/12/15 15:46:23;;;;;;;20.58;13.30;;;;;;;8.50;86.36;100949.00;10133223;28;20161;-68
2020/12/15 15:51:20;;;;;;;21.98;14.05;;;;;;;8.38;87.32;100951.34;10138731;28;20182;-68
2020/12/15 15:56:15;;;;;;;19.92;13.35;;;;;;;8.57;86.81;100952.13;10136966;28;20141;-68
2020/12/15 16:01:30;;;;;;;19.38;14.73;;;;;;;8.54;87.02;100963.66;10128819;28;20507;-66
2020/12/15 16:06:26;;;;;;;19.88;14.50;;;;;;;8.53;86.57;100964.75;10106326;28;20141;-68
2020/12/15 16:11:22;;;;;;;19.85;14.25;;;;;;;8.57;86.91;100964.97;10137178;28;20471;-68
2020/12/15 16:16:19;;;;;;;23.02;16.33;;;;;;;8.44;87.21;100952.91;10120283;28;20676;-67
2020/12/15 16:21:16;;;;;;;21.35;15.30;;;;;;;8.59;86.81;100968.22;10122176;28;20050;-68
2020/12/15 16:26:15;;;;;;;22.40;15.63;;;;;;;8.49;87.40;100974.59;10123994;28;20054;-69
2020/12/15 16:31:11;;;;;;;21.92;15.27;;;;;;;8.49;87.20;100985.50;10132092;28;20149;-66
2020/12/15 16:36:11;;;;;;;20.00;15.20;;;;;;;8.57;86.89;100987.56;10128910;28;20172;-66
2020/12/15 16:41:11;;;;;;;24.20;16.23;;;;;;;8.49;87.35;100995.59;10125539;28;20493;-66
2020/12/15 16:46:10;;;;;;;25.10;16.25;;;;;;;8.57;87.12;101003.13;10130542;28;20187;-68
2020/12/15 16:51:07;;;;;;;23.73;17.05;;;;;;;8.48;87.75;100997.53;10136867;28;20482;-68
2020/12/15 16:56:06;;;;;;;25.05;16.90;;;;;;;8.49;87.54;100990.97;10127350;28;20058;-68
2020/12/15 17:01:04;;;;;;;26.13;17.83;;;;;;;8.51;87.74;100994.19;10124582;28;20043;-67
2020/12/15 17:06:01;;;;;;;26.67;18.02;;;;;;;8.53;87.74;101005.63;10119431;28;20480;-67
2020/12/15 17:11:01;;;;;;;23.48;18.48;;;;;;;8.49;88.17;101004.59;10139612;28;20733;-68
2020/12/15 17:15:58;;;;;;;30.17;19.42;;;;;;;8.40;88.55;101015.38;10128050;28;20055;-68
2020/12/15 17:20:56;;;;;;;24.48;17.23;;;;;;;8.57;88.24;101024.94;10125779;28;20065;-67
2020/12/15 17:25:53;;;;;;;29.20;18.15;;;;;;;8.56;88.27;101029.56;10127894;28;20144;-67
2020/12/15 17:30:49;;;;;;;31.33;19.48;;;;;;;8.52;88.92;101039.44;10129295;28;20073;-69
2020/12/15 17:35:45;;;;;;;23.67;16.27;;;;;;;8.62;89.00;101038.47;10124244;28;20055;-67
2020/12/15 17:40:41;;;;;;;23.73;14.70;;;;;;;8.67;87.52;101034.84;10120998;28;20055;-67
2020/12/15 17:45:38;;;;;;;21.25;14.02;;;;;;;8.52;88.21;101042.16;10122094;28;20054;-63
2020/12/15 17:50:34;;;;;;;19.15;13.73;;;;;;;8.49;88.47;101056.38;10108853;28;20050;-67
2020/12/15 17:55:35;;;;;;;24.17;15.50;;;;;;;8.48;88.63;101060.19;10125467;28;20061;-67
2020/12/15 18:00:31;;;;;;;20.55;14.52;;;;;;;8.53;88.41;101078.41;10127484;28;20076;-67
2020/12/15 18:05:27;;;;;;;19.80;13.05;;;;;;;8.49;88.61;101072.72;10138575;28;20050;-67
2020/12/15 18:10:23;;;;;;;18.05;12.70;;;;;;;8.54;88.42;101074.56;10137285;28;20101;-67
2020/12/15 18:15:21;;;;;;;18.00;13.40;;;;;;;8.57;88.48;101084.88;10132907;28;20487;-67
2020/12/15 18:20:22;;;;;;;20.52;14.60;;;;;;;8.54;88.85;101097.19;10133525;28;20063;-66
2020/12/15 18:25:24;;;;;;;18.77;11.60;;;;;;;8.53;88.27;101101.00;10132386;28;20054;-66
2020/12/15 18:30:26;;;;;;;17.20;12.15;;;;;;;8.60;88.09;101089.72;10135546;28;20054;-67
2020/12/15 18:35:27;;;;;;;12.35;10.13;;;;;;;8.43;88.50;101091.06;10110105;28;20101;-67
2020/12/15 18:40:28;;;;;;;13.60;10.68;;;;;;;8.44;88.67;101094.59;10120206;28;20058;-67
2020/12/15 18:45:29;;;;;;;13.05;10.50;;;;;;;8.36;89.13;101106.13;10114936;28;20405;-67
2020/12/15 18:50:30;;;;;;;14.07;9.48;;;;;;;8.34;89.09;101102.88;10103193;28;20062;-67
2020/12/15 18:55:31;;;;;;;13.20;10.02;;;;;;;8.36;89.39;101111.59;10117633;28;20058;-66
2020/12/15 19:00:32;;;;;;;12.55;10.02;;;;;;;8.20;89.96;101119.94;10129663;28;20529;-66
2020/12/15 19:05:34;;;;;;;13.02;10.50;;;;;;;8.31;89.28;101119.81;10116866;28;20046;-67
2020/12/15 19:10:35;;;;;;;15.63;11.85;;;;;;;8.15;90.63;101130.91;10130152;28;20050;-67
2020/12/15 19:15:36;;;;;;;14.48;11.15;;;;;;;8.36;89.94;101138.84;10123803;28;20050;-67
2020/12/15 19:20:37;;;;;;;13.85;10.40;;;;;;;8.33;89.47;101139.41;10118598;28;20050;-67
2020/12/15 19:25:40;;;;;;;16.30;12.63;;;;;;;8.30;90.16;101150.88;10121732;28;20090;-67
2020/12/15 19:30:44;;;;;;;15.55;11.77;;;;;;;8.36;89.65;101164.16;10123789;28;20053;-66
2020/12/15 19:35:45;;;;;;;16.42;12.40;;;;;;;8.31;90.48;101169.69;10114123;28;20413;-67
2020/12/15 19:40:46;;;;;;;14.45;11.38;;;;;;;8.34;89.63;101173.72;10099078;28;20047;-66
2020/12/15 19:45:47;;;;;;;15.23;11.45;;;;;;;8.35;90.31;101175.34;10111434;28;20046;-67
2020/12/15 19:50:48;;;;;;;16.00;11.80;;;;;;;8.45;89.82;101191.59;10118664;28;20085;-67
2020/12/15 19:55:44;;;;;;;15.38;11.48;;;;;;;8.33;90.67;101204.78;10114961;28;20142;-68
2020/12/15 20:00:45;;;;;;;15.43;11.70;;;;;;;8.45;90.25;101201.69;10109367;28;20057;-66
2020/12/15 20:05:41;;;;;;;17.38;12.80;;;;;;;8.40;90.21;101194.38;10130165;28;20060;-66
2020/12/15 20:10:42;;;;;;;14.02;11.65;;;;;;;8.51;89.94;101211.41;10127416;28;20062;-67
2020/12/15 20:15:38;;;;;;;16.30;12.70;;;;;;;8.57;90.01;101221.16;10117664;28;20054;-68
2020/12/15 20:20:39;;;;;;;17.00;13.02;;;;;;;8.58;89.27;101223.56;10124826;28;20138;-68
2020/12/15 20:25:35;;;;;;;17.92;14.40;;;;;;;8.58;90.01;101237.22;10109322;28;20066;-67
2020/12/15 20:30:37;;;;;;;19.42;13.90;;;;;;;8.62;89.29;101240.97;10125467;28;20133;-67
2020/12/15 20:35:38;;;;;;;18.33;14.45;;;;;;;8.61;89.21;101244.03;10119897;28;20057;-67
2020/12/15 20:40:39;;;;;;;17.38;13.00;;;;;;;8.61;89.39;101244.81;10114511;28;20054;-67
2020/12/15 20:45:35;;;;;;;20.67;15.23;;;;;;;8.44;90.56;101244.47;10126276;28;20196;-67
2020/12/15 20:50:36;;;;;;;17.70;13.70;;;;;;;8.72;89.69;101244.69;10106276;28;20503;-67
2020/12/15 20:55:37;;;;;;;19.58;14.82;;;;;;;8.79;88.78;101256.03;10109598;28;20054;-68
2020/12/15 21:00:38;;;;;;;20.25;14.85;;;;;;;8.83;88.79;101262.53;10127464;28;20612;-67
2020/12/15 21:05:39;;;;;;;21.58;15.05;;;;;;;8.83;88.99;101273.44;10126216;28;20050;-67
2020/12/15 21:10:40;;;;;;;20.20;14.85;;;;;;;8.80;89.08;101284.94;10116972;28;20050;-67
2020/12/15 21:15:41;;;;;;;19.23;14.32;;;;;;;8.78;89.22;101287.16;10123827;28;20046;-66
2020/12/15 21:20:42;;;;;;;20.58;14.60;;;;;;;8.77;89.34;101296.41;10126483;28;20145;-67
2020/12/15 21:25:43;;;;;;;24.05;15.85;;;;;;;8.56;90.34;101307.59;10121626;28;20050;-67
2020/12/15 21:30:44;;;;;;;24.90;15.68;;;;;;;8.64;89.61;101315.09;10118876;28;20054;-67
2020/12/15 21:35:46;;;;;;;22.58;16.05;;;;;;;8.70;89.38;101328.66;10112784;28;20415;-66
2020/12/15 21:40:42;;;;;;;21.42;15.20;;;;;;;8.69;89.41;101333.31;10126814;28;20046;-71
2020/12/15 21:45:38;;;;;;;24.02;17.38;;;;;;;8.69;89.25;101337.97;10130621;28;20061;-69
2020/12/15 21:50:34;;;;;;;23.02;16.52;;;;;;;8.61;89.36;101347.59;10140180;28;20974;-69
2020/12/15 21:55:30;;;;;;;21.25;15.60;;;;;;;8.64;88.98;101347.81;10114998;28;20061;-69
2020/12/15 22:00:26;;;;;;;19.80;14.57;;;;;;;8.69;88.90;101365.22;10126655;28;20061;-69
2020/12/15 22:05:22;;;;;;;20.75;16.17;;;;;;;8.72;89.28;101360.00;10129561;28;20483;-69
2020/12/15 22:10:19;;;;;;;22.17;15.63;;;;;;;8.79;88.85;101367.81;10130234;28;20157;-69
2020/12/15 22:15:14;;;;;;;21.30;16.27;;;;;;;8.75;88.87;101380.41;10122795;28;20058;-70
2020/12/15 22:20:11;;;;;;;22.52;14.95;;;;;;;8.76;88.39;101385.59;10118330;28;20076;-70
2020/12/15 22:25:07;;;;;;;22.63;16.65;;;;;;;8.71;88.08;101390.28;10117566;28;20058;-70
2020/12/15 22:30:05;;;;;;;22.27;17.27;;;;;;;8.76;87.98;101403.88;10132977;28;20053;-69
2020/12/15 22:35:04;;;;;;;24.17;17.90;;;;;;;8.72;87.97;101405.53;10132849;28;20852;-69
2020/12/15 22:40:00;;;;;;;23.73;17.27;;;;;;;8.65;87.84;101424.94;10124581;28;20567;-69
2020/12/15 22:44:56;;;;;;;24.63;18.25;;;;;;;8.67;87.39;101432.84;10130765;28;20081;-69
2020/12/15 22:49:52;;;;;;;23.00;16.98;;;;;;;8.61;87.83;101440.28;10132483;28;20050;-69